Time;durP1;ratioP1;P1;durP2;ratioP2;P2;SDS_P1;SDS_P2;PMS_P1;PMS_P2;Temp;Humidity;BMP_temperature;BMP_pressure;BME280_temperature;BME280_humidity;BME280_pressure;Samples;Min_cycle;Max_cycle;Signal;HPM_P1;HPM_P2
2023/07/16 00:00:08;;;;;;;3.43;2.33;;;;;;;21.62;62.11;100178.78;5064546;28;20448;-80
2023/07/16 00:02:54;;;;;;;2.43;2.20;;;;;;;21.55;62.35;100185.16;5080804;28;20436;-80
2023/07/16 00:05:40;;;;;;;4.77;2.70;;;;;;;21.48;62.84;100188.75;5058899;28;20431;-80
2023/07/16 00:08:26;;;;;;;2.53;2.30;;;;;;;21.53;62.50;100190.59;5065026;28;20817;-80
2023/07/16 00:11:12;;;;;;;3.53;2.37;;;;;;;21.53;62.73;100182.16;5079821;28;20494;-79
2023/07/16 00:13:57;;;;;;;2.40;2.20;;;;;;;21.53;63.62;100194.16;5056490;28;20448;-80
2023/07/16 00:16:43;;;;;;;4.23;2.60;;;;;;;21.55;62.43;100190.78;5079738;28;20453;-80
2023/07/16 00:19:28;;;;;;;2.40;2.20;;;;;;;21.47;62.81;100195.69;5058931;28;20444;-79
2023/07/16 00:22:13;;;;;;;3.77;2.23;;;;;;;21.60;62.76;100198.28;5065107;28;20481;-79
2023/07/16 00:25:00;;;;;;;2.30;2.00;;;;;;;21.65;62.10;100211.41;5065341;28;20511;-80
2023/07/16 00:27:45;;;;;;;3.53;2.20;;;;;;;21.62;62.10;100209.72;5078781;28;20550;-79
2023/07/16 00:30:30;;;;;;;2.70;2.27;;;;;;;21.57;61.33;100205.78;5058247;28;20831;-79
2023/07/16 00:33:16;;;;;;;2.90;2.60;;;;;;;21.68;60.95;100216.66;5063898;28;20825;-79
2023/07/16 00:36:02;;;;;;;3.83;2.20;;;;;;;21.57;61.07;100213.47;5062933;28;20435;-78
2023/07/16 00:38:49;;;;;;;3.10;2.40;;;;;;;21.38;61.58;100215.91;5077107;28;20432;-79
2023/07/16 00:41:36;;;;;;;5.30;2.17;;;;;;;21.36;61.36;100218.50;5062190;28;20892;-80
2023/07/16 00:44:22;;;;;;;3.30;2.20;;;;;;;21.18;62.11;100226.00;5069019;28;21090;-79
2023/07/16 00:47:07;;;;;;;3.10;2.20;;;;;;;21.19;61.91;100218.34;5061540;28;20848;-79
2023/07/16 00:49:54;;;;;;;2.97;2.17;;;;;;;21.11;62.36;100220.38;5053506;28;21053;-79
2023/07/16 00:52:39;;;;;;;2.53;2.03;;;;;;;21.06;62.48;100221.28;5060145;28;20786;-78
2023/07/16 00:55:25;;;;;;;2.27;1.80;;;;;;;20.88;63.11;100213.97;5059494;28;20431;-79
2023/07/16 00:58:12;;;;;;;2.37;2.17;;;;;;;20.84;63.25;100219.16;5058429;28;20832;-78
2023/07/16 01:00:57;;;;;;;6.17;2.73;;;;;;;20.78;63.14;100224.19;5073519;28;20424;-80
2023/07/16 01:03:44;;;;;;;2.57;2.13;;;;;;;20.68;63.86;100217.59;5073509;28;20817;-79
2023/07/16 01:06:35;;;;;;;3.23;2.60;;;;;;;20.68;63.41;100223.22;5058494;28;20459;-79
2023/07/16 01:09:21;;;;;;;3.20;2.20;;;;;;;20.62;63.58;100211.41;5063292;28;20763;-79
2023/07/16 01:12:08;;;;;;;2.73;1.80;;;;;;;20.65;63.06;100218.72;5084372;28;21083;-80
2023/07/16 01:14:58;;;;;;;4.60;2.13;;;;;;;20.55;63.51;100221.31;5066042;28;20471;-79
2023/07/16 01:17:43;;;;;;;2.73;2.03;;;;;;;20.47;64.07;100219.78;5084862;28;20992;-79
2023/07/16 01:20:29;;;;;;;2.37;2.17;;;;;;;20.46;63.77;100223.88;5084156;28;20427;-80
2023/07/16 01:23:30;;;;;;;3.70;2.30;;;;;;;20.45;64.11;100223.16;5069522;28;20451;-79
2023/07/16 01:26:33;;;;;;;3.00;2.30;;;;;;;20.43;63.46;100230.63;5083384;28;20445;-79
2023/07/16 01:29:35;;;;;;;3.13;2.30;;;;;;;20.40;63.25;100231.75;5080523;28;20442;-79
2023/07/16 01:32:24;;;;;;;2.30;2.10;;;;;;;20.47;63.45;100226.16;5063661;28;20828;-79
2023/07/16 01:35:11;;;;;;;3.00;2.20;;;;;;;20.45;63.73;100223.16;5068068;28;20991;-79
2023/07/16 01:37:56;;;;;;;4.93;2.27;;;;;;;20.42;62.12;100232.66;5068342;28;20802;-79
2023/07/16 01:40:42;;;;;;;2.67;2.33;;;;;;;20.40;62.65;100221.25;5057369;28;20438;-80
2023/07/16 01:43:27;;;;;;;3.33;2.20;;;;;;;20.32;62.49;100242.19;5063298;28;20432;-79
2023/07/16 01:46:14;;;;;;;3.70;2.53;;;;;;;20.41;62.49;100230.44;5059901;28;20793;-79
2023/07/16 01:49:02;;;;;;;2.93;2.17;;;;;;;20.43;62.07;100239.03;5066026;28;20463;-80
2023/07/16 01:51:48;;;;;;;2.30;2.10;;;;;;;20.36;62.31;100239.75;5081867;28;20822;-80
2023/07/16 01:54:33;;;;;;;3.40;1.90;;;;;;;20.19;61.96;100250.69;5070387;28;20463;-79
2023/07/16 01:57:19;;;;;;;4.00;2.40;;;;;;;20.39;61.22;100249.88;5069829;28;20459;-79
2023/07/16 02:00:05;;;;;;;2.30;2.10;;;;;;;20.28;61.66;100253.75;5085063;28;20442;-79
2023/07/16 02:03:06;;;;;;;4.20;2.20;;;;;;;20.28;61.17;100253.00;5084306;28;20440;-79
2023/07/16 02:05:52;;;;;;;7.17;2.33;;;;;;;20.17;61.80;100258.91;5064511;28;20462;-79
2023/07/16 02:08:39;;;;;;;3.53;2.40;;;;;;;20.26;61.81;100258.41;5070393;28;20871;-79
2023/07/16 02:11:24;;;;;;;3.73;2.37;;;;;;;20.28;61.70;100261.41;5069939;28;20443;-80
2023/07/16 02:14:10;;;;;;;3.40;2.60;;;;;;;20.29;62.92;100263.69;5076515;28;20478;-79
2023/07/16 02:16:55;;;;;;;3.43;2.13;;;;;;;20.34;62.06;100262.00;5069826;28;20822;-79
2023/07/16 02:19:42;;;;;;;2.60;2.00;;;;;;;20.32;61.96;100270.25;5062132;28;21646;-79
2023/07/16 02:22:42;;;;;;;3.50;2.40;;;;;;;20.31;62.14;100263.88;5092488;27;1262247;-79
2023/07/16 02:25:27;;;;;;;3.57;2.10;;;;;;;20.20;62.96;100269.03;5121269;28;20513;-79
2023/07/16 02:28:13;;;;;;;3.17;2.10;;;;;;;20.31;62.60;100279.97;5117665;28;21012;-79
2023/07/16 02:30:59;;;;;;;2.13;1.90;;;;;;;20.09;62.69;100281.31;5100512;28;20429;-79
2023/07/16 02:33:44;;;;;;;3.57;2.23;;;;;;;20.03;63.74;100283.50;5101915;28;20907;-79
2023/07/16 02:36:30;;;;;;;2.40;2.07;;;;;;;19.97;64.64;100296.16;5098065;28;20469;-79
2023/07/16 02:39:16;;;;;;;3.27;2.17;;;;;;;20.00;64.31;100300.66;5105589;28;20789;-79
2023/07/16 02:42:02;;;;;;;4.87;2.20;;;;;;;19.78;65.07;100306.84;5119016;28;20457;-78
2023/07/16 02:44:47;;;;;;;2.80;2.00;;;;;;;19.74;64.99;100306.47;5115578;28;20478;-79
2023/07/16 02:47:32;;;;;;;4.60;2.60;;;;;;;19.64;64.48;100302.63;5100271;28;20461;-79
2023/07/16 02:50:18;;;;;;;2.73;1.90;;;;;;;19.62;65.18;100304.47;5111551;28;21002;-79
2023/07/16 02:53:04;;;;;;;3.50;2.30;;;;;;;19.74;60.32;100310.00;5093574;28;20442;-78
2023/07/16 02:55:51;;;;;;;2.80;2.33;;;;;;;19.73;60.72;100314.09;5096861;28;20438;-79
2023/07/16 02:58:36;;;;;;;3.93;2.77;;;;;;;19.66;62.13;100314.78;5097782;28;20438;-79
2023/07/16 03:01:22;;;;;;;3.90;2.57;;;;;;;19.85;59.70;100320.94;5101392;28;20844;-79
2023/07/16 03:04:07;;;;;;;5.10;2.87;;;;;;;19.77;60.04;100327.78;5107937;28;20808;-79
2023/07/16 03:06:54;;;;;;;6.40;2.67;;;;;;;19.83;59.04;100320.00;5094634;28;20532;-79
2023/07/16 03:09:42;;;;;;;4.23;2.00;;;;;;;19.84;58.98;100327.09;5116513;28;20836;-79
2023/07/16 03:12:28;;;;;;;4.43;1.87;;;;;;;19.74;59.19;100329.63;5114230;28;20733;-78
2023/07/16 03:15:14;;;;;;;4.03;2.00;;;;;;;19.73;58.57;100333.00;5112250;28;20449;-78
2023/07/16 03:17:59;;;;;;;3.37;2.30;;;;;;;19.63;58.15;100340.38;5098496;28;20873;-79
2023/07/16 03:20:44;;;;;;;4.03;2.47;;;;;;;19.69;59.54;100338.94;5094007;28;20809;-79
2023/07/16 03:23:30;;;;;;;3.03;2.70;;;;;;;19.74;60.36;100348.53;5097586;28;20453;-79
2023/07/16 03:26:16;;;;;;;2.60;2.13;;;;;;;19.71;60.25;100358.00;5096417;28;20438;-79
2023/07/16 03:29:03;;;;;;;3.10;1.90;;;;;;;19.56;60.67;100362.72;5094954;28;20981;-78
2023/07/16 03:31:49;;;;;;;5.13;2.50;;;;;;;19.54;60.07;100365.31;5095823;28;20434;-79
2023/07/16 03:34:37;;;;;;;3.13;1.97;;;;;;;19.43;61.12;100366.31;5083900;28;20846;-78
2023/07/16 03:37:23;;;;;;;2.80;2.00;;;;;;;19.38;61.46;100363.63;5086546;28;20469;-78
2023/07/16 03:40:15;;;;;;;4.80;2.20;;;;;;;19.14;62.16;100361.84;5081407;28;20788;-78
2023/07/16 03:43:03;;;;;;;5.03;2.37;;;;;;;19.28;61.30;100376.59;5080087;28;20812;-78
2023/07/16 03:45:50;;;;;;;2.10;1.83;;;;;;;19.17;62.42;100374.78;5079515;28;20444;-79
2023/07/16 03:48:35;;;;;;;5.63;2.63;;;;;;;19.13;61.40;100384.81;5083172;28;20815;-78
2023/07/16 03:51:21;;;;;;;5.10;2.07;;;;;;;19.13;61.54;100387.63;5082991;28;20870;-78
2023/07/16 03:54:07;;;;;;;3.60;2.30;;;;;;;19.14;61.69;100389.88;5086494;28;20837;-79
2023/07/16 03:56:52;;;;;;;2.70;2.17;;;;;;;19.15;61.49;100397.00;5085700;28;20458;-77
2023/07/16 03:59:38;;;;;;;4.23;1.90;;;;;;;19.16;61.01;100400.53;5079622;28;20461;-78
2023/07/16 04:02:26;;;;;;;4.70;2.40;;;;;;;19.10;61.68;100397.13;5082132;28;20828;-78
2023/07/16 04:05:12;;;;;;;6.73;2.53;;;;;;;19.06;61.52;100405.06;5072282;28;20981;-79
2023/07/16 04:07:57;;;;;;;4.47;2.87;;;;;;;18.99;62.83;100400.91;5094213;28;20462;-78
2023/07/16 04:10:44;;;;;;;5.33;2.50;;;;;;;18.96;62.76;100407.59;5078508;28;20801;-78
2023/07/16 04:13:29;;;;;;;4.20;2.53;;;;;;;18.93;62.23;100411.44;5100105;28;20947;-78
2023/07/16 04:16:14;;;;;;;3.10;2.53;;;;;;;18.95;62.88;100422.13;5095848;28;20439;-78
2023/07/16 04:19:01;;;;;;;5.83;2.60;;;;;;;18.89;62.53;100419.44;5101033;28;20801;-78
2023/07/16 04:21:46;;;;;;;4.40;2.63;;;;;;;18.79;63.53;100414.78;5096918;28;20826;-79
2023/07/16 04:24:31;;;;;;;4.33;2.50;;;;;;;18.93;61.94;100424.72;5094765;28;20858;-78
2023/07/16 04:27:17;;;;;;;3.03;2.57;;;;;;;18.99;62.24;100423.31;5081803;28;20989;-78
2023/07/16 04:30:02;;;;;;;5.37;2.73;;;;;;;19.05;62.08;100428.78;5080916;28;20817;-78
2023/07/16 04:32:47;;;;;;;2.77;2.57;;;;;;;18.95;62.93;100428.47;5096887;28;20805;-78
2023/07/16 04:35:34;;;;;;;3.57;2.70;;;;;;;18.99;62.07;100434.50;5086599;28;20443;-79
2023/07/16 04:38:20;;;;;;;8.30;2.40;;;;;;;18.92;63.06;100428.81;5092494;28;20458;-79
2023/07/16 04:41:08;;;;;;;2.80;2.10;;;;;;;18.99;62.47;100434.50;5093682;28;20802;-78
2023/07/16 04:43:53;;;;;;;4.60;2.87;;;;;;;19.05;61.77;100431.59;5089579;28;20946;-78
2023/07/16 04:46:39;;;;;;;4.33;2.80;;;;;;;19.16;61.05;100443.31;5093602;28;20531;-79
2023/07/16 04:49:24;;;;;;;4.17;2.70;;;;;;;19.30;61.83;100442.03;5089688;28;20813;-79
2023/07/16 04:52:10;;;;;;;4.23;2.73;;;;;;;19.35;62.53;100452.38;5093579;28;20830;-79
2023/07/16 04:54:56;;;;;;;4.70;2.53;;;;;;;19.48;62.36;100446.75;5084767;28;20949;-79
2023/07/16 04:57:41;;;;;;;3.47;1.90;;;;;;;19.77;60.90;100445.56;5100545;28;20923;-79
2023/07/16 05:00:27;;;;;;;6.50;2.70;;;;;;;19.75;61.44;100453.78;5090430;28;20447;-78
2023/07/16 05:03:12;;;;;;;4.33;2.27;;;;;;;19.88;61.23;100450.91;5082857;28;20807;-78
2023/07/16 05:05:57;;;;;;;6.00;3.07;;;;;;;19.88;60.22;100462.13;5085244;28;20843;-79
2023/07/16 05:08:44;;;;;;;5.03;2.87;;;;;;;19.75;61.17;100465.00;5091168;28;20906;-78
2023/07/16 05:11:29;;;;;;;3.67;2.20;;;;;;;19.92;60.24;100457.69;5092827;28;20879;-79
2023/07/16 05:14:14;;;;;;;3.27;2.87;;;;;;;19.88;60.28;100462.13;5089143;28;20443;-78
2023/07/16 05:16:59;;;;;;;4.70;2.87;;;;;;;19.82;60.05;100470.69;5085222;28;20866;-79
2023/07/16 05:19:45;;;;;;;4.13;2.70;;;;;;;19.93;57.14;100469.69;5074258;28;20809;-79
2023/07/16 05:22:31;;;;;;;3.73;2.70;;;;;;;19.69;58.94;100467.16;5090347;28;20836;-78
2023/07/16 05:25:17;;;;;;;3.30;2.97;;;;;;;19.81;57.39;100486.00;5073577;28;20454;-77
2023/07/16 05:28:03;;;;;;;8.00;3.70;;;;;;;19.93;57.25;100481.63;5062781;28;20474;-79
2023/07/16 05:30:48;;;;;;;5.60;3.70;;;;;;;19.82;56.46;100475.56;5086841;28;20432;-78
2023/07/16 05:33:34;;;;;;;4.93;3.17;;;;;;;19.93;56.29;100476.03;5064356;28;20864;-79
2023/07/16 05:36:19;;;;;;;5.50;3.90;;;;;;;19.86;55.87;100481.56;5082080;28;20427;-79
2023/07/16 05:39:05;;;;;;;5.73;3.40;;;;;;;19.99;56.28;100496.31;5073966;28;20790;-79
2023/07/16 05:41:51;;;;;;;5.50;3.37;;;;;;;19.84;56.20;100492.59;5069347;28;20804;-78
2023/07/16 05:44:37;;;;;;;4.83;3.40;;;;;;;19.83;56.30;100494.63;5086303;28;20432;-79
2023/07/16 05:47:22;;;;;;;6.40;3.77;;;;;;;19.93;56.22;100489.31;5076969;28;20783;-77
2023/07/16 05:50:09;;;;;;;4.80;4.07;;;;;;;19.83;56.39;100493.88;5069641;28;20804;-79
2023/07/16 05:52:54;;;;;;;8.80;3.83;;;;;;;19.95;56.16;100498.69;5078238;28;20431;-79
2023/07/16 05:55:40;;;;;;;8.43;3.77;;;;;;;20.07;54.81;100502.00;5071208;28;20813;-79
2023/07/16 05:58:27;;;;;;;7.90;3.70;;;;;;;20.02;55.00;100500.81;5071000;28;20816;-78
2023/07/16 06:01:12;;;;;;;8.50;4.47;;;;;;;20.01;53.73;100504.16;5068751;28;20864;-79
2023/07/16 06:03:58;;;;;;;6.07;4.00;;;;;;;20.08;54.59;100509.13;5067805;28;20435;-79
2023/07/16 06:06:43;;;;;;;6.20;4.30;;;;;;;20.08;54.53;100511.94;5065188;28;20857;-79
2023/07/16 06:09:28;;;;;;;10.27;5.17;;;;;;;20.02;52.72;100512.03;5084998;28;20790;-79
2023/07/16 06:12:14;;;;;;;6.90;4.47;;;;;;;19.82;53.65;100503.59;5084235;28;20781;-78
2023/07/16 06:15:00;;;;;;;7.30;4.00;;;;;;;19.93;55.58;100498.47;5083983;28;20435;-78
2023/07/16 06:17:46;;;;;;;10.50;4.00;;;;;;;19.98;53.66;100499.66;5080448;28;20922;-78
2023/07/16 06:20:31;;;;;;;5.37;4.37;;;;;;;20.04;53.97;100503.13;5082372;28;20767;-79
2023/07/16 06:23:17;;;;;;;7.60;4.70;;;;;;;20.14;54.01;100496.47;5080800;28;20825;-79
2023/07/16 06:26:02;;;;;;;5.43;4.57;;;;;;;20.16;51.61;100505.13;5068431;28;20793;-78
2023/07/16 06:28:49;;;;;;;7.77;4.70;;;;;;;20.31;52.32;100510.88;5082495;28;20837;-79
2023/07/16 06:31:36;;;;;;;6.37;5.10;;;;;;;20.36;52.55;100509.22;5078808;28;20642;-79
2023/07/16 06:34:22;;;;;;;9.87;4.90;;;;;;;20.21;51.29;100507.03;5092121;28;20793;-79
2023/07/16 06:37:07;;;;;;;6.43;4.47;;;;;;;20.37;51.93;100513.53;5087572;28;21998;-79
2023/07/16 06:39:53;;;;;;;5.27;4.27;;;;;;;20.36;52.18;100517.66;5074032;28;20857;-78
2023/07/16 06:42:38;;;;;;;6.07;4.77;;;;;;;20.41;51.80;100519.56;5085001;28;20466;-79
2023/07/16 06:45:26;;;;;;;9.20;4.80;;;;;;;20.55;52.22;100529.41;5078782;28;20882;-78
2023/07/16 06:48:13;;;;;;;5.60;4.33;;;;;;;20.63;51.35;100535.88;5089598;28;20891;-78
2023/07/16 06:50:58;;;;;;;11.00;5.47;;;;;;;20.58;49.35;100517.09;5086792;28;20435;-79
2023/07/16 06:53:44;;;;;;;12.00;5.27;;;;;;;20.42;49.41;100537.94;5080939;28;20434;-79
2023/07/16 06:56:30;;;;;;;8.23;4.47;;;;;;;20.38;49.60;100543.88;5077461;28;20814;-79
2023/07/16 06:59:15;;;;;;;7.33;4.90;;;;;;;20.41;49.41;100530.81;5080350;28;20423;-79
2023/07/16 07:02:01;;;;;;;7.17;5.50;;;;;;;20.56;49.54;100539.34;5087251;28;20508;-79
2023/07/16 07:04:47;;;;;;;5.83;5.20;;;;;;;20.66;49.86;100540.38;5070674;28;20884;-79
2023/07/16 07:07:33;;;;;;;7.33;4.80;;;;;;;20.85;48.87;100529.66;5074617;28;20450;-79
2023/07/16 07:10:19;;;;;;;9.43;4.70;;;;;;;20.44;47.76;100538.13;5075310;28;20967;-80
2023/07/16 07:13:04;;;;;;;8.10;5.10;;;;;;;20.37;48.71;100541.59;5098811;28;20812;-79
2023/07/16 07:15:49;;;;;;;7.47;4.63;;;;;;;20.54;46.92;100539.16;5097890;28;20437;-81
2023/07/16 07:18:35;;;;;;;7.20;5.20;;;;;;;20.55;47.18;100535.03;5096003;28;20438;-80
2023/07/16 07:21:21;;;;;;;5.80;4.93;;;;;;;20.75;47.46;100531.47;5084636;28;20436;-79
2023/07/16 07:24:07;;;;;;;6.20;5.60;;;;;;;20.63;47.74;100525.38;5095792;28;20426;-79
2023/07/16 07:26:53;;;;;;;6.40;4.83;;;;;;;20.72;46.55;100543.81;5098787;28;20529;-79
2023/07/16 07:29:38;;;;;;;6.23;4.50;;;;;;;20.66;46.98;100529.91;5081848;28;20847;-79
2023/07/16 07:32:24;;;;;;;8.43;5.40;;;;;;;20.65;47.40;100527.63;5096876;28;20836;-79
2023/07/16 07:35:09;;;;;;;5.97;5.43;;;;;;;20.70;47.20;100547.16;5096624;28;20434;-79
2023/07/16 07:37:56;;;;;;;6.97;5.27;;;;;;;20.71;46.21;100547.91;5080479;28;20821;-79
2023/07/16 07:40:43;;;;;;;8.33;4.47;;;;;;;20.71;45.86;100551.47;5080310;28;20434;-78
2023/07/16 07:43:28;;;;;;;5.33;4.80;;;;;;;20.79;45.35;100543.13;5072241;28;20520;-79
2023/07/16 07:46:14;;;;;;;5.10;4.60;;;;;;;20.82;45.91;100542.00;5102398;28;20815;-80
2023/07/16 07:49:00;;;;;;;5.53;4.50;;;;;;;20.92;45.78;100540.25;5079112;28;20736;-80
2023/07/16 07:51:47;;;;;;;6.57;5.07;;;;;;;21.03;45.44;100539.94;5087266;28;20431;-79
2023/07/16 07:54:34;;;;;;;4.87;4.43;;;;;;;21.19;45.61;100541.56;5093449;28;20504;-79
2023/07/16 07:57:20;;;;;;;5.97;4.67;;;;;;;21.20;44.75;100543.81;5084872;28;20451;-79
2023/07/16 08:00:11;;;;;;;7.50;4.87;;;;;;;21.25;45.72;100544.97;5085243;28;20953;-79
2023/07/16 08:02:57;;;;;;;7.37;4.70;;;;;;;21.36;45.95;100541.84;5094814;28;20471;-80
2023/07/16 08:05:42;;;;;;;6.80;4.90;;;;;;;21.51;45.70;100544.75;5095090;28;20442;-79
2023/07/16 08:08:28;;;;;;;5.60;4.33;;;;;;;21.57;43.96;100543.25;5079351;28;20451;-79
2023/07/16 08:11:17;;;;;;;6.93;4.90;;;;;;;21.43;44.28;100538.31;5080615;28;20813;-79
2023/07/16 08:14:03;;;;;;;8.17;5.03;;;;;;;21.47;44.25;100549.97;5094167;28;20777;-79
2023/07/16 08:16:48;;;;;;;5.40;4.90;;;;;;;21.61;44.60;100548.53;5089658;28;20968;-79
2023/07/16 08:19:33;;;;;;;5.73;4.60;;;;;;;21.66;43.67;100539.97;5075667;28;20439;-80
2023/07/16 08:22:19;;;;;;;6.30;5.20;;;;;;;21.83;45.02;100554.28;5072677;28;20836;-79
2023/07/16 08:25:05;;;;;;;5.10;4.33;;;;;;;21.95;42.78;100549.09;5075680;28;20438;-79
2023/07/16 08:27:52;;;;;;;7.13;4.37;;;;;;;21.85;42.58;100548.84;5074895;28;20458;-78
2023/07/16 08:30:38;;;;;;;7.93;4.83;;;;;;;21.57;43.96;100553.78;5092075;28;20427;-81
2023/07/16 08:33:23;;;;;;;7.67;4.77;;;;;;;21.65;43.27;100554.56;5076393;28;20435;-80
2023/07/16 08:36:11;;;;;;;5.87;5.27;;;;;;;21.72;43.34;100553.88;5086309;28;20826;-79
2023/07/16 08:38:57;;;;;;;8.53;4.60;;;;;;;21.68;44.19;100559.84;5070660;28;20435;-80
2023/07/16 08:41:42;;;;;;;5.80;5.00;;;;;;;21.76;43.57;100554.28;5081223;28;20838;-79
2023/07/16 08:44:34;;;;;;;4.93;4.43;;;;;;;21.87;42.89;100549.03;5091044;28;20470;-79
2023/07/16 08:47:28;;;;;;;5.60;5.03;;;;;;;21.88;43.61;100552.63;5085910;28;20927;-80
2023/07/16 08:50:17;;;;;;;6.07;5.37;;;;;;;21.91;42.94;100543.06;5084485;28;20427;-79
2023/07/16 08:53:06;;;;;;;5.80;5.13;;;;;;;22.08;42.23;100560.94;5091039;28;20853;-80
2023/07/16 08:55:52;;;;;;;5.30;4.80;;;;;;;22.00;42.33;100565.03;5091763;28;20427;-79
2023/07/16 08:58:38;;;;;;;6.77;5.03;;;;;;;22.18;43.14;100561.16;5073152;28;20415;-79
2023/07/16 09:01:25;;;;;;;5.47;4.60;;;;;;;22.47;41.56;100566.16;5085995;28;20507;-79
2023/07/16 09:04:11;;;;;;;12.70;5.23;;;;;;;22.57;40.34;100567.09;5065152;28;20809;-79
2023/07/16 09:06:56;;;;;;;7.60;5.43;;;;;;;22.85;40.60;100567.66;5089389;28;20446;-80
2023/07/16 09:09:42;;;;;;;5.37;4.67;;;;;;;23.10;40.57;100570.66;5086866;28;20824;-78
2023/07/16 09:12:29;;;;;;;7.50;5.23;;;;;;;23.13;40.79;100553.41;5086032;28;20746;-80
2023/07/16 09:15:18;;;;;;;7.43;4.77;;;;;;;23.16;39.62;100565.63;5088152;28;20781;-80
2023/07/16 09:18:05;;;;;;;4.80;4.40;;;;;;;23.10;39.11;100559.38;5087407;28;20887;-79
2023/07/16 09:20:55;;;;;;;6.33;4.20;;;;;;;23.14;38.84;100554.91;5096840;28;20476;-80
2023/07/16 09:23:42;;;;;;;5.77;4.10;;;;;;;23.34;39.61;100567.28;5082049;28;21931;-78
2023/07/16 09:26:28;;;;;;;7.13;4.40;;;;;;;23.65;39.02;100560.97;5088907;28;20415;-79
2023/07/16 09:29:13;;;;;;;4.97;4.57;;;;;;;23.82;38.74;100566.75;5080748;28;20436;-80
2023/07/16 09:32:00;;;;;;;8.00;4.43;;;;;;;23.88;38.58;100561.69;5091004;28;20487;-81
2023/07/16 09:34:54;;;;;;;4.13;3.73;;;;;;;23.86;37.58;100569.19;5083295;28;20400;-80
2023/07/16 09:37:40;;;;;;;7.07;4.87;;;;;;;23.61;38.56;100551.38;5089999;28;20518;-79
2023/07/16 09:40:26;;;;;;;4.10;3.70;;;;;;;23.72;39.71;100563.00;5076719;28;20428;-80
2023/07/16 09:43:13;;;;;;;4.43;4.03;;;;;;;24.07;38.04;100572.50;5085661;28;20889;-80
2023/07/16 09:46:00;;;;;;;7.13;4.00;;;;;;;24.03;38.79;100566.50;5089854;28;20789;-79
2023/07/16 09:48:45;;;;;;;5.80;3.77;;;;;;;24.17;38.02;100574.16;5068330;28;20575;-80
2023/07/16 09:51:35;;;;;;;4.37;3.90;;;;;;;24.21;38.07;100591.44;5080976;28;20442;-81
2023/07/16 09:54:21;;;;;;;4.87;4.20;;;;;;;24.04;37.93;100574.38;5092688;28;20754;-80
2023/07/16 09:57:09;;;;;;;4.20;3.80;;;;;;;24.32;37.32;100573.31;5062860;28;20931;-80
2023/07/16 09:59:59;;;;;;;6.00;4.50;;;;;;;24.51;37.07;100568.66;5066795;28;20762;-81
2023/07/16 10:02:45;;;;;;;4.67;4.27;;;;;;;24.68;38.03;100580.06;5079815;28;20764;-79
2023/07/16 10:05:31;;;;;;;4.50;3.93;;;;;;;24.21;37.75;100580.13;5071398;28;20498;-81
2023/07/16 10:08:19;;;;;;;4.23;3.90;;;;;;;24.32;38.55;100579.69;5078940;28;20439;-80
2023/07/16 10:11:05;;;;;;;4.50;3.97;;;;;;;24.19;39.04;100582.03;5087092;28;20770;-81
2023/07/16 10:13:51;;;;;;;4.57;3.63;;;;;;;24.54;38.48;100576.00;5081824;28;20405;-81
2023/07/16 10:16:38;;;;;;;3.80;3.47;;;;;;;24.23;37.62;100582.41;5090602;28;20443;-80
2023/07/16 10:19:24;;;;;;;6.27;3.70;;;;;;;24.20;38.27;100589.94;5070581;28;20421;-80
2023/07/16 10:22:10;;;;;;;4.00;3.30;;;;;;;23.85;38.30;100591.03;5072520;28;20927;-81
2023/07/16 10:24:57;;;;;;;3.87;3.40;;;;;;;23.64;38.78;100584.13;5090358;28;20897;-81
2023/07/16 10:27:42;;;;;;;3.40;3.10;;;;;;;23.89;38.80;100582.94;5089506;28;20506;-80
2023/07/16 10:30:28;;;;;;;5.17;3.40;;;;;;;24.23;39.07;100583.13;5095455;28;20425;-80
2023/07/16 10:33:14;;;;;;;3.93;3.60;;;;;;;24.60;37.59;100582.19;5084367;28;20432;-80
2023/07/16 10:35:59;;;;;;;3.70;3.40;;;;;;;24.59;37.14;100575.03;5078773;28;20471;-80
2023/07/16 10:38:45;;;;;;;5.67;3.33;;;;;;;24.74;37.39;100597.53;5081890;28;20768;-80
2023/07/16 10:41:33;;;;;;;4.20;3.80;;;;;;;24.86;37.85;100590.09;5092053;28;20466;-79
2023/07/16 10:44:21;;;;;;;4.63;3.57;;;;;;;24.83;37.16;100591.22;5075977;28;20764;-81
2023/07/16 10:47:06;;;;;;;4.70;3.60;;;;;;;24.80;36.71;100583.91;5073606;28;20441;-80
2023/07/16 10:49:54;;;;;;;3.57;3.27;;;;;;;25.11;36.32;100585.16;5081863;28;20747;-81
2023/07/16 10:52:39;;;;;;;4.23;3.70;;;;;;;25.03;36.38;100595.03;5096155;28;21052;-80
2023/07/16 10:55:26;;;;;;;3.67;3.30;;;;;;;25.15;36.12;100585.50;5079810;28;20423;-81
2023/07/16 10:58:14;;;;;;;4.40;3.50;;;;;;;24.85;36.24;100597.06;5086680;28;20463;-80
2023/07/16 11:01:00;;;;;;;4.00;3.70;;;;;;;24.58;37.64;100596.13;5092358;28;20820;-80
2023/07/16 11:03:45;;;;;;;4.50;3.77;;;;;;;24.48;36.67;100603.72;5085186;28;21077;-81
2023/07/16 11:06:31;;;;;;;4.37;4.03;;;;;;;24.52;37.13;100598.41;5099359;28;20394;-81
2023/07/16 11:09:19;;;;;;;6.40;3.60;;;;;;;24.53;38.06;100599.91;5085049;28;20454;-81
2023/07/16 11:12:08;;;;;;;3.93;3.53;;;;;;;25.04;36.46;100600.13;5078581;28;20761;-81
2023/07/16 11:14:57;;;;;;;4.30;3.87;;;;;;;25.25;36.38;100600.53;5101693;28;20768;-80
2023/07/16 11:17:49;;;;;;;4.37;3.50;;;;;;;25.42;36.27;100597.72;5098065;28;20807;-81
2023/07/16 11:20:35;;;;;;;4.23;3.93;;;;;;;25.18;35.39;100604.13;5078507;28;20440;-80
2023/07/16 11:23:20;;;;;;;5.00;4.07;;;;;;;24.95;36.59;100606.41;5073559;28;20884;-80
2023/07/16 11:26:06;;;;;;;3.63;3.33;;;;;;;25.20;37.44;100604.31;5083196;28;20800;-80
2023/07/16 11:28:53;;;;;;;4.17;3.00;;;;;;;25.29;35.43;100606.50;5096928;28;20745;-79
2023/07/16 11:31:41;;;;;;;5.23;3.47;;;;;;;25.41;35.94;100601.84;5094699;28;20414;-79
2023/07/16 11:34:26;;;;;;;4.33;3.83;;;;;;;25.53;35.16;100608.56;5089321;28;20447;-81
2023/07/16 11:37:12;;;;;;;4.43;3.93;;;;;;;25.74;35.86;100611.72;5099737;28;20463;-81
2023/07/16 11:39:58;;;;;;;4.10;3.70;;;;;;;25.40;35.06;100611.69;5100986;28;20410;-82
2023/07/16 11:42:46;;;;;;;4.23;3.83;;;;;;;25.11;35.69;100607.03;5098965;28;20895;-82
2023/07/16 11:45:33;;;;;;;4.07;3.77;;;;;;;25.51;35.61;100605.56;5080310;28;20435;-81
2023/07/16 11:48:21;;;;;;;5.37;3.17;;;;;;;25.37;35.94;100612.13;5079473;28;20889;-79
2023/07/16 11:51:06;;;;;;;5.63;3.83;;;;;;;25.37;36.02;100615.69;5075801;28;20468;-80
2023/07/16 11:53:51;;;;;;;4.10;3.73;;;;;;;25.33;36.20;100623.84;5081419;28;20473;-80
2023/07/16 11:56:37;;;;;;;4.40;3.77;;;;;;;25.54;36.39;100610.03;5070743;28;20465;-80
2023/07/16 11:59:25;;;;;;;4.97;3.60;;;;;;;26.08;34.70;100617.34;5094504;28;20924;-81
2023/07/16 12:02:10;;;;;;;4.17;3.73;;;;;;;26.29;34.46;100620.50;5070384;28;20427;-80
2023/07/16 12:04:57;;;;;;;6.70;3.50;;;;;;;26.33;33.74;100609.50;5077049;28;20467;-82
2023/07/16 12:07:43;;;;;;;4.53;3.97;;;;;;;26.93;33.89;100615.03;5076052;28;20837;-81
2023/07/16 12:10:28;;;;;;;4.37;3.63;;;;;;;26.85;33.77;100616.47;5078737;28;20817;-81
2023/07/16 12:13:14;;;;;;;4.20;3.80;;;;;;;27.08;33.82;100603.41;5098362;28;20454;-80
2023/07/16 12:16:00;;;;;;;3.83;3.53;;;;;;;27.06;33.47;100606.13;5079657;28;20436;-81
2023/07/16 12:18:50;;;;;;;4.23;3.80;;;;;;;27.07;32.29;100592.69;5095972;28;20481;-82
2023/07/16 12:21:39;;;;;;;3.87;3.57;;;;;;;26.79;33.08;100602.56;5075760;28;20838;-80
2023/07/16 12:24:25;;;;;;;4.33;3.93;;;;;;;27.07;33.37;100606.88;5078738;28;20458;-80
2023/07/16 12:27:11;;;;;;;4.80;4.27;;;;;;;26.79;32.67;100610.34;5088064;28;20450;-80
2023/07/16 12:29:56;;;;;;;4.10;3.80;;;;;;;26.39;33.12;100612.81;5075654;28;20792;-79
2023/07/16 12:32:42;;;;;;;7.20;4.47;;;;;;;26.03;34.48;100609.88;5079318;28;20433;-80
2023/07/16 12:35:27;;;;;;;3.80;3.50;;;;;;;26.53;33.42;100616.78;5079726;28;20769;-80
2023/07/16 12:38:14;;;;;;;4.10;3.70;;;;;;;26.27;33.38;100611.81;5072808;28;20857;-79
2023/07/16 12:41:00;;;;;;;4.20;3.80;;;;;;;26.22;34.12;100615.69;5093802;28;20492;-80
2023/07/16 12:43:45;;;;;;;4.53;3.60;;;;;;;26.21;33.58;100623.41;5094190;28;20875;-80
2023/07/16 12:46:30;;;;;;;5.43;4.30;;;;;;;26.17;34.06;100617.44;5094175;28;20776;-80
2023/07/16 12:49:16;;;;;;;4.07;3.67;;;;;;;26.59;33.28;100620.84;5088153;28;20800;-80
2023/07/16 12:52:01;;;;;;;4.40;3.80;;;;;;;26.82;32.87;100614.84;5076815;28;20913;-80